createdAt,value
2019-04-11T00:01:38.706Z,96.81
2019-04-11T00:04:01.912Z,96.77
2019-04-11T00:06:31.795Z,96.49
2019-04-11T00:09:00.789Z,96.66
2019-04-11T00:11:30.213Z,97.19
2019-04-11T00:13:59.890Z,97.39
2019-04-11T00:16:29.563Z,97.66
2019-04-11T00:18:58.882Z,98.07
2019-04-11T00:21:28.753Z,98.69
2019-04-11T00:23:58.611Z,98.80
2019-04-11T00:26:28.561Z,98.95
2019-04-11T00:28:58.346Z,99.08
2019-04-11T00:31:27.169Z,99.00
2019-04-11T00:33:56.326Z,98.98
2019-04-11T00:36:25.189Z,99.00
2019-04-11T00:38:54.970Z,99.08
2019-04-11T00:41:25.973Z,99.04
2019-04-11T00:43:54.873Z,98.50
2019-04-11T00:46:24.566Z,97.64
2019-04-11T00:48:54.472Z,98.12
2019-04-11T00:51:23.630Z,99.09
2019-04-11T00:53:52.371Z,98.69
2019-04-11T00:56:21.094Z,98.75
2019-04-11T00:58:50.009Z,99.18
2019-04-11T01:01:19.787Z,99.33
2019-04-11T01:03:49.553Z,99.40
2019-04-11T01:06:18.423Z,99.44
2019-04-11T01:08:48.116Z,99.22
2019-04-11T01:11:16.953Z,99.52
2019-04-11T01:13:50.832Z,99.33
2019-04-11T01:16:30.145Z,99.13
2019-04-11T01:18:58.955Z,98.96
2019-04-11T01:21:28.560Z,98.75
2019-04-11T01:23:57.577Z,99.24
2019-04-11T01:26:27.174Z,99.25
2019-04-11T01:28:56.941Z,99.46
2019-04-11T01:31:33.755Z,99.84
2019-04-11T01:34:02.540Z,98.97
2019-04-11T01:36:31.258Z,99.03
2019-04-11T01:39:02.991Z,99.24
2019-04-11T01:41:31.781Z,99.40
2019-04-11T01:44:03.747Z,99.26
2019-04-11T01:46:32.023Z,98.93
2019-04-11T01:49:12.258Z,99.50
2019-04-11T01:51:42.139Z,99.74
2019-04-11T01:54:11.216Z,99.57
2019-04-11T01:56:41.096Z,99.72
2019-04-11T01:59:11.057Z,99.77
2019-04-11T02:01:41.497Z,98.89
2019-04-11T02:04:14.737Z,98.98
2019-04-11T02:06:43.534Z,99.03
2019-04-11T02:09:14.246Z,99.16
2019-04-11T02:11:42.981Z,98.98
2019-04-11T02:14:16.154Z,99.20
2019-04-11T02:16:43.272Z,98.92
2019-04-11T02:19:12.182Z,99.17
2019-04-11T02:21:42.106Z,99.44
2019-04-11T02:24:15.533Z,99.75
2019-04-11T02:26:47.233Z,99.47
2019-04-11T02:29:17.272Z,99.83
2019-04-11T02:31:46.768Z,100.00
2019-04-11T02:34:16.211Z,100.00
2019-04-11T02:36:45.174Z,100.00
2019-04-11T02:39:19.542Z,100.00
2019-04-11T02:41:46.903Z,100.00
2019-04-11T02:44:30.659Z,100.00
2019-04-11T02:46:54.445Z,100.00
2019-04-11T02:49:19.289Z,100.00
2019-04-11T02:51:49.462Z,100.00
2019-04-11T02:54:21.784Z,100.00
2019-04-11T02:56:52.900Z,100.00
2019-04-11T02:59:21.932Z,100.00
2019-04-11T03:01:52.461Z,100.00
2019-04-11T03:04:24.233Z,100.00
2019-04-11T03:06:52.760Z,100.00
2019-04-11T03:09:22.490Z,100.00
2019-04-11T03:11:54.470Z,100.00
2019-04-11T03:14:23.444Z,100.00
2019-04-11T03:17:03.714Z,100.00
2019-04-11T03:19:37.512Z,100.00
2019-04-11T03:21:54.489Z,100.00
2019-04-11T03:24:26.324Z,100.00
2019-04-11T03:26:56.374Z,100.00
2019-04-11T03:29:26.673Z,100.00
2019-04-11T03:32:40.068Z,100.00
2019-04-11T03:37:39.314Z,100.00
2019-04-11T03:39:55.621Z,100.00
2019-04-11T03:42:17.183Z,100.00
2019-04-11T03:44:37.841Z,100.00
2019-04-11T03:47:16.805Z,100.00
2019-04-11T03:49:41.906Z,100.00
2019-04-11T03:52:05.785Z,100.00
2019-04-11T03:54:36.713Z,100.00
2019-04-11T03:57:07.699Z,100.00
2019-04-11T03:59:38.423Z,100.00
2019-04-11T04:02:07.919Z,100.00
2019-04-11T04:04:39.156Z,100.00
2019-04-11T04:07:08.934Z,100.00
2019-04-11T04:09:39.691Z,100.00
2019-04-11T04:12:11.072Z,100.00
2019-04-11T04:14:47.488Z,100.00
2019-04-11T04:17:21.504Z,100.00
2019-04-11T04:20:08.838Z,100.00
2019-04-11T04:22:39.845Z,100.00
2019-04-11T04:25:10.137Z,100.00
2019-04-11T04:27:40.887Z,100.00
2019-04-11T04:30:11.415Z,100.00
2019-04-11T04:32:42.735Z,100.00
2019-04-11T04:35:15.014Z,100.00
2019-04-11T04:37:43.843Z,100.00
2019-04-11T04:40:31.217Z,100.00
2019-04-11T04:42:49.908Z,100.00
2019-04-11T04:45:16.370Z,100.00
2019-04-11T04:47:51.497Z,100.00
2019-04-11T04:50:16.044Z,100.00
2019-04-11T04:52:45.061Z,100.00
2019-04-11T04:55:13.774Z,100.00
2019-04-11T04:57:42.942Z,100.00
2019-04-11T05:00:14.080Z,100.00
2019-04-11T05:02:44.173Z,100.00
2019-04-11T05:05:14.083Z,100.00
2019-04-11T05:07:46.270Z,100.00
2019-04-11T05:10:15.345Z,100.00
2019-04-11T05:12:45.904Z,100.00
2019-04-11T05:15:16.444Z,100.00
2019-04-11T05:17:46.110Z,99.75
2019-04-11T05:20:16.302Z,99.25
2019-04-11T05:22:47.151Z,99.44
2019-04-11T05:25:16.135Z,99.61
2019-04-11T05:27:45.439Z,99.36
2019-04-11T05:30:14.701Z,99.41
2019-04-11T05:32:43.410Z,99.13
2019-04-11T05:35:12.228Z,98.77
2019-04-11T05:37:41.020Z,98.04
2019-04-11T05:40:10.248Z,98.02
2019-04-11T05:42:39.651Z,97.62
2019-04-11T05:45:16.988Z,97.88
2019-04-11T05:47:39.420Z,97.57
2019-04-11T05:50:13.785Z,97.15
2019-04-11T05:52:44.082Z,97.83
2019-04-11T05:55:13.847Z,98.01
2019-04-11T05:57:44.916Z,96.22
2019-04-11T06:00:15.872Z,96.07
2019-04-11T06:02:46.227Z,95.52
2019-04-11T06:05:17.275Z,96.60
2019-04-11T06:07:55.614Z,96.69
2019-04-11T06:10:42.798Z,97.06
2019-04-11T06:13:26.820Z,97.77
2019-04-11T06:16:02.647Z,95.93
2019-04-11T06:18:37.784Z,95.93
2019-04-11T06:21:19.940Z,93.39
2019-04-11T06:23:50.289Z,93.49
2019-04-11T06:26:34.515Z,91.85
2019-04-11T06:29:16.298Z,90.13
2019-04-11T06:31:57.238Z,86.87
2019-04-11T06:34:27.661Z,84.67
2019-04-11T06:37:03.661Z,83.65
2019-04-11T06:39:33.991Z,83.44
2019-04-11T06:42:07.634Z,83.53
2019-04-11T06:44:38.158Z,81.34
2019-04-11T06:47:14.816Z,81.59
2019-04-11T06:49:48.848Z,82.91
2019-04-11T06:52:18.821Z,79.91
2019-04-11T06:55:06.599Z,78.03
2019-04-11T06:57:38.226Z,77.60
2019-04-11T07:00:14.745Z,77.76
2019-04-11T07:03:01.295Z,77.44
2019-04-11T07:05:33.056Z,76.03
2019-04-11T07:08:03.545Z,76.87
2019-04-11T07:10:36.694Z,76.94
2019-04-11T07:13:10.080Z,76.99
2019-04-11T07:15:44.222Z,76.44
2019-04-11T07:18:31.362Z,76.74
2019-04-11T07:21:02.945Z,75.28
2019-04-11T07:23:51.385Z,72.99
2019-04-11T07:26:22.975Z,71.96
2019-04-11T07:28:54.295Z,68.58
2019-04-11T07:31:44.220Z,71.10
2019-04-11T07:34:33.246Z,67.32
2019-04-11T07:37:19.198Z,68.56
2019-04-11T07:40:05.874Z,67.94
2019-04-11T07:42:43.490Z,65.45
2019-04-11T07:45:14.665Z,67.72
2019-04-11T07:47:50.414Z,68.48
2019-04-11T07:50:19.914Z,67.25
2019-04-11T07:52:54.329Z,68.82
2019-04-11T07:55:25.688Z,69.28
2019-04-11T07:57:56.692Z,67.35
2019-04-11T08:00:49.349Z,69.31
2019-04-11T08:03:19.861Z,69.79
2019-04-11T08:05:54.418Z,70.82
2019-04-11T08:08:30.823Z,72.41
2019-04-11T08:11:04.426Z,72.41
2019-04-11T08:13:53.612Z,69.35
2019-04-11T08:16:26.754Z,68.58
2019-04-11T08:19:01.083Z,67.09
2019-04-11T08:21:47.852Z,66.52
2019-04-11T08:24:20.960Z,64.63
2019-04-11T08:27:07.870Z,62.56
2019-04-11T08:29:38.198Z,64.04
2019-04-11T08:32:11.775Z,61.75
2019-04-11T08:34:42.245Z,62.35
2019-04-11T08:37:27.804Z,63.14
2019-04-11T08:39:58.548Z,61.74
2019-04-11T08:42:33.745Z,62.22
2019-04-11T08:45:03.989Z,60.89
2019-04-11T08:47:44.747Z,64.09
2019-04-11T08:50:07.003Z,63.14
2019-04-11T08:52:40.536Z,62.62
2019-04-11T08:55:11.036Z,63.50
2019-04-11T08:57:44.494Z,60.64
2019-04-11T09:00:22.257Z,60.57
2019-04-11T09:02:53.470Z,63.39
2019-04-11T09:05:24.885Z,63.98
2019-04-11T09:07:56.135Z,63.63
2019-04-11T09:10:30.032Z,60.75
2019-04-11T09:13:00.650Z,58.14
2019-04-11T09:15:48.849Z,57.92
2019-04-11T09:18:17.786Z,62.44
2019-04-11T09:21:04.488Z,62.35
2019-04-11T09:23:35.675Z,58.16
2019-04-11T09:26:23.556Z,56.24
2019-04-11T09:28:53.478Z,58.22
2019-04-11T09:31:23.887Z,58.53
2019-04-11T09:33:55.367Z,59.61
2019-04-11T09:36:29.543Z,58.77
2019-04-11T09:39:06.627Z,61.70
2019-04-11T09:41:46.861Z,62.10
2019-04-11T09:44:20.383Z,61.22
2019-04-11T09:46:50.724Z,59.09
2019-04-11T09:49:21.023Z,55.06
2019-04-11T09:52:00.332Z,57.00
2019-04-11T09:54:40.120Z,53.51
2019-04-11T09:57:16.554Z,55.58
2019-04-11T10:00:05.931Z,53.68
2019-04-11T10:02:56.143Z,53.84
2019-04-11T10:05:38.964Z,54.41
2019-04-11T10:08:26.631Z,52.63
2019-04-11T10:10:59.761Z,53.31
2019-04-11T10:13:35.586Z,55.08
2019-04-11T10:16:07.422Z,53.80
2019-04-11T10:18:40.345Z,50.83
2019-04-11T10:21:10.938Z,52.01
2019-04-11T10:23:41.279Z,53.15
2019-04-11T10:26:10.284Z,55.63
2019-04-11T10:28:49.702Z,64.22
2019-04-11T10:31:18.393Z,55.15
2019-04-11T10:33:55.456Z,54.84
2019-04-11T10:36:29.462Z,58.80
2019-04-11T10:39:09.061Z,60.23
2019-04-11T10:41:40.056Z,65.89
2019-04-11T10:44:11.748Z,66.61
2019-04-11T10:46:51.927Z,66.45
2019-04-11T10:49:22.239Z,67.02
2019-04-11T10:51:56.074Z,68.19
2019-04-11T10:54:26.039Z,67.08
2019-04-11T10:57:12.542Z,67.33
2019-04-11T10:59:44.866Z,68.40
2019-04-11T11:02:17.996Z,66.61
2019-04-11T11:04:49.145Z,67.42
2019-04-11T11:07:18.585Z,70.06
2019-04-11T11:09:54.893Z,65.91
2019-04-11T11:12:25.442Z,65.58
2019-04-11T11:14:58.907Z,63.96
2019-04-11T11:17:54.618Z,66.24
2019-04-11T11:20:29.935Z,64.84
2019-04-11T11:22:57.359Z,65.12
2019-04-11T11:25:27.706Z,67.04
2019-04-11T11:27:56.422Z,64.22
2019-04-11T11:30:39.989Z,66.73
2019-04-11T11:33:10.071Z,66.96
2019-04-11T11:35:46.138Z,65.70
2019-04-11T11:38:17.685Z,66.34
2019-04-11T11:40:58.315Z,67.42
2019-04-11T11:43:28.775Z,65.36
2019-04-11T11:45:59.125Z,66.80
2019-04-11T11:48:35.568Z,66.45
2019-04-11T11:51:23.889Z,66.37
2019-04-11T11:54:07.084Z,66.54
2019-04-11T11:56:40.337Z,67.68
2019-04-11T11:59:13.388Z,68.36
2019-04-11T12:01:49.759Z,67.47
2019-04-11T12:04:36.114Z,67.62
2019-04-11T12:07:07.208Z,68.59
2019-04-11T12:09:55.074Z,68.05
2019-04-11T12:12:25.518Z,66.25
2019-04-11T12:14:59.341Z,69.73
2019-04-11T12:17:33.572Z,67.34
2019-04-11T12:20:08.893Z,66.03
2019-04-11T12:22:34.789Z,65.98
2019-04-11T12:25:05.416Z,69.00
2019-04-11T12:27:52.076Z,66.61
2019-04-11T12:30:36.036Z,67.78
2019-04-11T12:33:13.034Z,68.71
2019-04-11T12:35:54.756Z,68.73
2019-04-11T12:38:25.449Z,67.26
2019-04-11T12:41:14.139Z,67.24
2019-04-11T12:43:50.440Z,68.46
2019-04-11T12:46:36.935Z,65.53
2019-04-11T12:49:16.001Z,66.01
2019-04-11T12:52:02.777Z,66.08
2019-04-11T12:54:33.085Z,65.43
2019-04-11T12:57:19.588Z,63.73
2019-04-11T12:59:49.881Z,64.20
2019-04-11T13:02:20.285Z,62.33
2019-04-11T13:04:49.097Z,63.49
2019-04-11T13:07:25.454Z,63.48
2019-04-11T13:09:56.712Z,61.93
2019-04-11T13:12:43.352Z,62.13
2019-04-11T13:15:16.466Z,63.18
2019-04-11T13:17:46.715Z,60.88
2019-04-11T13:20:33.256Z,62.06
2019-04-11T13:23:03.503Z,63.26
2019-04-11T13:25:39.860Z,62.28
2019-04-11T13:28:09.037Z,59.96
2019-04-11T13:30:49.805Z,61.55
2019-04-11T13:33:20.050Z,60.82
2019-04-11T13:36:00.441Z,61.03
2019-04-11T13:38:30.684Z,63.48
2019-04-11T13:41:20.154Z,64.73
2019-04-11T13:43:50.088Z,63.93
2019-04-11T13:46:29.397Z,65.09
2019-04-11T13:49:02.728Z,66.26
2019-04-11T13:51:32.981Z,65.20
2019-04-11T13:54:19.756Z,65.52
2019-04-11T13:57:06.183Z,65.64
2019-04-11T13:59:36.504Z,65.29
2019-04-11T14:02:17.635Z,65.78
2019-04-11T14:04:47.942Z,66.09
2019-04-11T14:07:18.198Z,69.20
2019-04-11T14:10:01.037Z,68.98
2019-04-11T14:12:28.859Z,65.49
2019-04-11T14:14:59.109Z,67.04
2019-04-11T14:17:45.640Z,67.91
2019-04-11T14:20:28.577Z,66.67
2019-04-11T14:23:02.833Z,66.31
2019-04-11T14:25:48.791Z,66.35
2019-04-11T14:28:19.896Z,66.24
2019-04-11T14:31:08.301Z,64.86
2019-04-11T14:33:56.169Z,70.60
2019-04-11T14:36:43.306Z,66.34
2019-04-11T14:39:13.610Z,68.88
2019-04-11T14:41:56.116Z,67.09
2019-04-11T14:44:26.422Z,67.83
2019-04-11T14:46:56.677Z,67.59
2019-04-11T14:49:27.113Z,67.75
2019-04-11T14:52:06.976Z,68.06
2019-04-11T14:54:37.231Z,67.17
2019-04-11T14:57:10.891Z,65.55
2019-04-11T14:59:53.822Z,66.08
2019-04-11T15:02:22.194Z,64.62
2019-04-11T15:05:01.510Z,63.97
2019-04-11T15:07:31.858Z,66.19
2019-04-11T15:10:02.101Z,66.49
2019-04-11T15:12:38.237Z,64.30
2019-04-11T15:15:11.974Z,64.65
2019-04-11T15:17:42.049Z,63.22
2019-04-11T15:20:14.098Z,62.89
2019-04-11T15:22:47.727Z,61.01
2019-04-11T15:25:30.329Z,60.07
2019-04-11T15:28:03.597Z,61.63
2019-04-11T15:30:36.638Z,58.95
2019-04-11T15:33:23.329Z,55.13
2019-04-11T15:35:57.759Z,55.18
2019-04-11T15:38:31.728Z,57.33
2019-04-11T15:41:01.958Z,58.58
2019-04-11T15:43:44.603Z,59.17
2019-04-11T15:46:17.062Z,59.42
2019-04-11T15:48:46.922Z,58.77
2019-04-11T15:51:33.858Z,59.42
2019-04-11T15:54:16.235Z,60.07
2019-04-11T15:56:46.744Z,60.99
2019-04-11T15:59:19.966Z,59.58
2019-04-11T16:02:07.803Z,61.40
2019-04-11T16:04:38.057Z,63.34
2019-04-11T16:07:14.387Z,63.58
2019-04-11T16:09:44.748Z,63.48
2019-04-11T16:12:16.389Z,66.68
2019-04-11T16:14:46.286Z,68.56
2019-04-11T16:17:30.571Z,69.54
2019-04-11T16:20:01.367Z,72.82
2019-04-11T16:22:34.616Z,75.64
2019-04-11T16:25:11.057Z,76.45
2019-04-11T16:27:53.324Z,76.31
2019-04-11T16:30:23.441Z,78.19
2019-04-11T16:32:53.707Z,79.07
2019-04-11T16:35:26.730Z,79.54
2019-04-11T16:38:00.482Z,79.72
2019-04-11T16:40:45.627Z,80.17
2019-04-11T16:43:14.398Z,81.55
2019-04-11T16:46:00.858Z,81.84
2019-04-11T16:48:29.676Z,83.00
2019-04-11T16:50:58.365Z,83.19
2019-04-11T16:53:27.052Z,83.21
2019-04-11T16:55:55.794Z,84.33
2019-04-11T16:58:26.103Z,85.60
2019-04-11T17:00:54.784Z,86.18
2019-04-11T17:03:25.131Z,86.08
2019-04-11T17:05:58.235Z,85.97
2019-04-11T17:08:31.637Z,86.32
2019-04-11T17:11:10.707Z,86.10
2019-04-11T17:13:40.257Z,85.51
2019-04-11T17:16:10.514Z,85.24
2019-04-11T17:18:39.198Z,84.75
2019-04-11T17:21:08.874Z,84.25
2019-04-11T17:23:37.575Z,84.41
2019-04-11T17:26:06.851Z,84.45
2019-04-11T17:28:36.806Z,85.01
2019-04-11T17:31:05.484Z,85.01
2019-04-11T17:33:34.166Z,85.14
2019-04-11T17:36:04.192Z,84.93
2019-04-11T17:38:36.849Z,84.84
2019-04-11T17:41:03.416Z,84.63
2019-04-11T17:43:32.177Z,85.49
2019-04-11T17:46:00.873Z,85.55
2019-04-11T17:48:29.557Z,85.86
2019-04-11T17:50:59.189Z,86.06
2019-04-11T17:53:27.858Z,86.57
2019-04-11T17:55:56.568Z,86.87
2019-04-11T17:58:27.274Z,88.27
2019-04-11T18:00:57.327Z,88.32
2019-04-11T18:03:26.032Z,89.41
2019-04-11T18:05:54.776Z,89.58
2019-04-11T18:08:23.861Z,89.86
2019-04-11T18:10:55.790Z,89.54
2019-04-11T18:13:23.064Z,90.05
2019-04-11T18:15:51.741Z,89.92
2019-04-11T18:18:20.418Z,90.34
2019-04-11T18:20:49.150Z,90.59
2019-04-11T18:23:19.835Z,90.56
2019-04-11T18:25:48.950Z,90.99
2019-04-11T18:28:21.653Z,91.23
2019-04-11T18:30:49.093Z,92.20
2019-04-11T18:33:17.763Z,92.36
2019-04-11T18:35:46.515Z,92.79
2019-04-11T18:38:15.200Z,92.95
2019-04-11T18:40:43.887Z,93.03
2019-04-11T18:43:16.004Z,93.22
2019-04-11T18:45:43.044Z,93.57
2019-04-11T18:48:11.733Z,93.80
2019-04-11T18:50:40.532Z,93.30
2019-04-11T18:53:09.226Z,93.06
2019-04-11T18:55:37.906Z,92.41
2019-04-11T18:58:06.752Z,92.53
2019-04-11T19:00:35.787Z,92.21
2019-04-11T19:03:08.123Z,92.37
2019-04-11T19:05:36.429Z,92.14
2019-04-11T19:08:05.108Z,91.78
2019-04-11T19:10:33.824Z,91.74
2019-04-11T19:13:02.682Z,91.72
2019-04-11T19:15:31.365Z,91.58
2019-04-11T19:18:06.048Z,91.76
2019-04-11T19:20:30.595Z,91.63
2019-04-11T19:22:59.271Z,91.44
2019-04-11T19:25:27.958Z,91.01
2019-04-11T19:27:57.376Z,90.92
2019-04-11T19:30:26.382Z,91.30
2019-04-11T19:32:55.713Z,91.36
2019-04-11T19:35:24.470Z,92.09
2019-04-11T19:37:53.157Z,92.55
2019-04-11T19:40:21.841Z,92.77
2019-04-11T19:42:50.574Z,93.01
2019-04-11T19:45:20.185Z,93.27
2019-04-11T19:47:51.525Z,93.72
2019-04-11T19:50:19.492Z,93.92
2019-04-11T19:52:48.185Z,93.86
2019-04-11T19:55:18.442Z,93.99
2019-04-11T19:57:48.771Z,94.15
2019-04-11T20:00:21.363Z,94.27
2019-04-11T20:02:47.946Z,94.41
2019-04-11T20:05:17.517Z,94.52
2019-04-11T20:07:46.241Z,94.86
2019-04-11T20:10:14.960Z,94.66
2019-04-11T20:12:43.764Z,94.73
2019-04-11T20:15:12.578Z,94.91
2019-04-11T20:17:44.712Z,94.93
2019-04-11T20:20:11.854Z,95.11
2019-04-11T20:22:40.601Z,95.34
2019-04-11T20:25:09.371Z,95.76
2019-04-11T20:27:38.453Z,96.17
2019-04-11T20:30:08.171Z,96.28
2019-04-11T20:32:36.901Z,96.46
2019-04-11T20:35:10.289Z,96.25
2019-04-11T20:37:42.239Z,96.27
2019-04-11T20:40:09.694Z,96.42
2019-04-11T20:42:38.487Z,96.59
2019-04-11T20:45:10.162Z,96.35
2019-04-11T20:47:38.881Z,96.55
2019-04-11T20:50:10.087Z,96.95
2019-04-11T20:52:38.810Z,97.34
2019-04-11T20:55:09.198Z,97.69
2019-04-11T20:57:40.424Z,98.41
2019-04-11T21:00:12.052Z,99.19
2019-04-11T21:02:39.920Z,99.50
2019-04-11T21:05:08.672Z,99.44
2019-04-11T21:07:39.153Z,99.60
2019-04-11T21:10:08.502Z,98.88
2019-04-11T21:12:37.952Z,98.42
2019-04-11T21:15:07.775Z,98.94
2019-04-11T21:17:36.504Z,100.00
2019-04-11T21:20:07.505Z,100.00
2019-04-11T21:22:36.224Z,100.00
2019-04-11T21:25:06.249Z,100.00
2019-04-11T21:27:35.099Z,100.00
2019-04-11T21:30:04.526Z,100.00
2019-04-11T21:32:33.244Z,100.00
2019-04-11T21:35:02.903Z,100.00
2019-04-11T21:37:31.781Z,100.00
2019-04-11T21:40:00.516Z,100.00
2019-04-11T21:42:29.308Z,100.00
2019-04-11T21:44:58.024Z,100.00
2019-04-11T21:47:26.751Z,100.00
2019-04-11T21:49:55.936Z,100.00
2019-04-11T21:52:24.658Z,100.00
2019-04-11T21:54:53.388Z,100.00
2019-04-11T21:57:22.239Z,100.00
2019-04-11T21:59:51.660Z,100.00
2019-04-11T22:02:24.055Z,100.00
2019-04-11T22:04:51.652Z,100.00
2019-04-11T22:07:20.488Z,100.00
2019-04-11T22:09:49.204Z,100.00
2019-04-11T22:12:17.973Z,100.00
2019-04-11T22:14:46.702Z,100.00
2019-04-11T22:17:16.156Z,100.00
2019-04-11T22:19:45.877Z,100.00
2019-04-11T22:22:15.316Z,100.00
2019-04-11T22:24:44.038Z,100.00
2019-04-11T22:27:12.823Z,100.00
2019-04-11T22:29:41.542Z,100.00
2019-04-11T22:32:10.271Z,100.00
2019-04-11T22:34:40.602Z,100.00
2019-04-11T22:37:09.323Z,100.00
2019-04-11T22:39:38.071Z,100.00
2019-04-11T22:42:06.922Z,100.00
2019-04-11T22:44:38.073Z,100.00
2019-04-11T22:47:07.987Z,100.00
2019-04-11T22:49:39.380Z,100.00
2019-04-11T22:52:08.164Z,100.00
2019-04-11T22:54:36.904Z,100.00
2019-04-11T22:57:05.808Z,100.00
2019-04-11T22:59:34.543Z,100.00
2019-04-11T23:02:19.586Z,100.00
2019-04-11T23:04:48.310Z,100.00
2019-04-11T23:07:17.791Z,100.00
2019-04-11T23:09:49.050Z,100.00
2019-04-11T23:12:17.745Z,100.00
2019-04-11T23:14:46.471Z,100.00
2019-04-11T23:17:16.106Z,100.00
2019-04-11T23:19:44.826Z,100.00
2019-04-11T23:22:13.567Z,100.00
2019-04-11T23:24:43.226Z,100.00
2019-04-11T23:27:11.954Z,100.00
2019-04-11T23:29:40.677Z,100.00
2019-04-11T23:32:09.436Z,100.00
2019-04-11T23:34:38.158Z,100.00
2019-04-11T23:37:06.884Z,100.00
2019-04-11T23:39:35.680Z,100.00
2019-04-11T23:42:04.395Z,100.00
2019-04-11T23:44:33.114Z,100.00
2019-04-11T23:47:01.910Z,100.00
2019-04-11T23:49:30.635Z,100.00
2019-04-11T23:51:59.402Z,100.00
2019-04-11T23:54:29.262Z,100.00
2019-04-11T23:57:00.990Z,100.00
2019-04-11T23:59:32.090Z,100.00
